Time;durP1;ratioP1;P1;durP2;ratioP2;P2;SDS_P1;SDS_P2;PMS_P1;PMS_P2;Temp;Humidity;BMP_temperature;BMP_pressure;BME280_temperature;BME280_humidity;BME280_pressure;Samples;Min_cycle;Max_cycle;Signal;HPM_P1;HPM_P2
2022/08/10 00:00:49;;;;;;;2.40;1.90;;;22.60;99.90;;;;;;6158372;23;20183;-92
2022/08/10 00:03:15;;;;;;;3.30;1.80;;;22.60;99.90;;;;;;6158398;23;20601;-96
2022/08/10 00:05:41;;;;;;;2.40;1.90;;;22.50;99.90;;;;;;6157707;23;20199;-96
2022/08/10 00:08:06;;;;;;;3.03;2.20;;;22.50;99.90;;;;;;6158299;23;20163;-94
2022/08/10 00:10:32;;;;;;;2.17;2.07;;;22.50;99.90;;;;;;6158780;23;20186;-92
2022/08/10 00:12:58;;;;;;;4.23;2.50;;;22.40;99.90;;;;;;6158672;23;20171;-93
2022/08/10 00:15:24;;;;;;;2.37;2.17;;;22.40;99.90;;;;;;6158377;23;20444;-96
2022/08/10 00:17:49;;;;;;;4.20;2.67;;;22.40;99.90;;;;;;6158266;23;20159;-96
2022/08/10 00:20:15;;;;;;;2.40;2.20;;;22.40;99.90;;;;;;6161865;23;20193;-91
2022/08/10 00:22:41;;;;;;;2.00;1.80;;;22.40;99.90;;;;;;6160428;23;20391;-94
2022/08/10 00:25:07;;;;;;;2.83;2.63;;;22.40;99.90;;;;;;6161147;23;20183;-92
2022/08/10 00:27:33;;;;;;;3.63;2.30;;;22.40;99.90;;;;;;6161953;23;20472;-90
2022/08/10 00:29:59;;;;;;;2.67;2.47;;;22.40;99.90;;;;;;6159651;23;20409;-92
2022/08/10 00:32:25;;;;;;;3.10;2.40;;;22.40;99.90;;;;;;6160378;23;20440;-92
2022/08/10 00:34:50;;;;;;;1.80;1.70;;;22.30;99.90;;;;;;6161484;23;20221;-96
2022/08/10 00:37:17;;;;;;;2.30;2.10;;;22.30;99.90;;;;;;6159766;23;20159;-92
2022/08/10 00:39:44;;;;;;;2.90;2.53;;;22.30;99.90;;;;;;6159714;23;20270;-92
2022/08/10 00:42:11;;;;;;;2.63;2.33;;;22.30;99.90;;;;;;6160105;23;20448;-96
2022/08/10 00:44:39;;;;;;;3.00;2.70;;;22.20;99.90;;;;;;6160908;23;20724;-92
2022/08/10 00:47:06;;;;;;;2.90;2.40;;;22.20;99.90;;;;;;6165417;23;20395;-92
2022/08/10 00:49:32;;;;;;;2.73;2.53;;;22.20;99.90;;;;;;6166675;23;20421;-92
2022/08/10 00:51:58;;;;;;;2.00;1.90;;;22.10;99.90;;;;;;6168751;23;20444;-92
2022/08/10 00:54:24;;;;;;;5.33;2.47;;;22.10;99.90;;;;;;6174694;23;20457;-92
2022/08/10 00:56:50;;;;;;;2.90;2.60;;;22.10;99.90;;;;;;6176310;23;20397;-94
2022/08/10 00:59:16;;;;;;;2.60;2.40;;;22.00;99.90;;;;;;6174935;23;20171;-92
2022/08/10 01:01:42;;;;;;;4.43;2.60;;;22.00;99.90;;;;;;6167848;23;20412;-92
2022/08/10 01:04:08;;;;;;;2.77;2.30;;;22.00;99.90;;;;;;6162485;23;20397;-96
2022/08/10 01:06:43;;;;;;;3.40;2.53;;;22.00;99.90;;;;;;6163344;23;20195;-96
2022/08/10 01:09:17;;;;;;;3.67;2.90;;;21.90;99.90;;;;;;6138245;23;20391;-92
2022/08/10 01:11:50;;;;;;;2.97;2.63;;;21.90;99.90;;;;;;6171430;23;20424;-93
2022/08/10 01:14:24;;;;;;;2.97;2.50;;;21.80;99.90;;;;;;6137430;23;20405;-92
2022/08/10 01:16:59;;;;;;;2.40;2.20;;;21.80;99.90;;;;;;6135653;23;20388;-93
2022/08/10 01:19:57;;;;;;;2.33;2.13;;;21.80;99.90;;;;;;6134381;23;20500;-96
2022/08/10 01:23:09;;;;;;;2.43;2.23;;;21.80;99.90;;;;;;6137786;23;20476;-96
2022/08/10 01:26:00;;;;;;;2.40;2.20;;;21.70;99.90;;;;;;6104879;23;20488;-96
2022/08/10 01:28:59;;;;;;;3.10;2.80;;;21.70;99.90;;;;;;6147912;23;20365;-93
2022/08/10 01:31:35;;;;;;;2.40;2.20;;;21.60;99.90;;;;;;6145239;23;20572;-92
2022/08/10 01:34:30;;;;;;;2.30;2.10;;;21.60;99.90;;;;;;6144259;23;20387;-92
2022/08/10 01:37:02;;;;;;;2.33;2.13;;;21.60;99.90;;;;;;6132474;23;20385;-92
2022/08/10 01:39:34;;;;;;;2.00;1.90;;;21.60;99.90;;;;;;6132444;23;20733;-96
2022/08/10 01:42:02;;;;;;;2.73;2.53;;;21.50;99.90;;;;;;6132558;23;20393;-96
2022/08/10 01:44:32;;;;;;;2.40;2.20;;;21.50;99.90;;;;;;6132449;23;20784;-92
2022/08/10 01:49:49;;;;;;;3.23;2.40;;;21.50;99.90;;;;;;6158371;23;20733;-96
2022/08/10 01:52:17;;;;;;;4.00;2.20;;;21.50;99.90;;;;;;6132409;23;20437;-92
2022/08/10 01:54:44;;;;;;;2.97;2.43;;;21.50;99.90;;;;;;6132021;23;20417;-96
2022/08/10 01:57:12;;;;;;;2.60;2.40;;;21.50;99.90;;;;;;6132549;23;20385;-92
2022/08/10 01:59:40;;;;;;;2.97;2.43;;;21.50;99.90;;;;;;6132624;23;20405;-96
2022/08/10 02:02:10;;;;;;;2.73;2.53;;;21.50;99.90;;;;;;6132110;23;20386;-96
2022/08/10 02:04:38;;;;;;;2.50;2.30;;;21.50;99.90;;;;;;6133212;23;20417;-96
2022/08/10 02:07:07;;;;;;;2.17;2.07;;;21.40;99.90;;;;;;6157868;23;20431;-96
2022/08/10 02:09:44;;;;;;;2.53;2.17;;;21.40;99.90;;;;;;6160177;23;20790;-96
2022/08/10 02:12:12;;;;;;;1.93;1.83;;;21.40;99.90;;;;;;6164217;23;20428;-92
2022/08/10 02:14:44;;;;;;;2.27;2.07;;;21.30;99.90;;;;;;6171780;23;20412;-92
2022/08/10 02:17:13;;;;;;;2.83;2.63;;;21.30;99.90;;;;;;6176231;23;20384;-93
2022/08/10 02:19:42;;;;;;;2.50;2.30;;;21.30;99.90;;;;;;6157517;23;20413;-96
2022/08/10 02:22:10;;;;;;;2.23;2.03;;;21.20;99.90;;;;;;6174032;23;20401;-92
2022/08/10 02:24:39;;;;;;;2.80;2.33;;;21.20;99.90;;;;;;6162487;23;20416;-92
2022/08/10 02:27:06;;;;;;;2.63;2.43;;;21.10;99.90;;;;;;6156987;23;20521;-92
2022/08/10 02:29:32;;;;;;;2.60;2.40;;;21.10;99.90;;;;;;6156632;23;20504;-94
2022/08/10 02:31:58;;;;;;;2.73;2.53;;;21.10;99.90;;;;;;6156484;23;20431;-92
2022/08/10 02:34:25;;;;;;;3.27;2.40;;;21.10;99.90;;;;;;6156615;23;20464;-96
2022/08/10 02:36:54;;;;;;;2.40;2.30;;;21.10;99.90;;;;;;6156798;23;20400;-93
2022/08/10 02:39:22;;;;;;;2.40;1.97;;;21.10;99.90;;;;;;6156490;23;20401;-96
2022/08/10 02:41:57;;;;;;;2.53;2.20;;;21.10;99.90;;;;;;6156502;23;20415;-96
2022/08/10 02:44:29;;;;;;;1.93;1.80;;;21.00;99.90;;;;;;6156489;23;20460;-96
2022/08/10 02:47:04;;;;;;;3.00;2.23;;;21.10;99.90;;;;;;6156786;23;20428;-96
2022/08/10 02:49:42;;;;;;;2.57;2.37;;;21.00;99.90;;;;;;6156474;23;20415;-92
2022/08/10 02:52:15;;;;;;;2.53;2.33;;;21.00;99.90;;;;;;6157202;23;20482;-91
2022/08/10 02:54:54;;;;;;;2.63;2.43;;;21.00;99.90;;;;;;6157672;23;20879;-95
2022/08/10 02:57:27;;;;;;;4.30;2.40;;;20.90;99.90;;;;;;6156732;23;20384;-92
2022/08/10 02:59:59;;;;;;;4.03;2.37;;;20.90;99.90;;;;;;6156515;23;20511;-96
2022/08/10 03:02:31;;;;;;;2.20;2.00;;;20.90;99.90;;;;;;6156942;23;20387;-92
2022/08/10 03:05:03;;;;;;;2.43;2.20;;;20.80;99.90;;;;;;6156857;23;20444;-94
2022/08/10 03:07:35;;;;;;;3.30;2.50;;;20.80;99.90;;;;;;6132532;23;20405;-92
2022/08/10 03:10:02;;;;;;;2.60;1.97;;;20.80;99.90;;;;;;6160492;23;20457;-93
2022/08/10 03:12:28;;;;;;;2.97;2.77;;;20.80;99.90;;;;;;6134844;23;20447;-92
2022/08/10 03:14:56;;;;;;;2.73;2.53;;;20.70;99.90;;;;;;6141855;23;20422;-92
2022/08/10 03:17:22;;;;;;;2.27;2.17;;;20.70;99.90;;;;;;6146932;23;20373;-92
2022/08/10 03:19:50;;;;;;;3.10;2.60;;;20.70;99.90;;;;;;6131673;23;20424;-96
2022/08/10 03:22:17;;;;;;;2.60;2.40;;;20.70;99.90;;;;;;6132000;23;20396;-92
2022/08/10 03:24:44;;;;;;;2.90;2.53;;;20.70;99.90;;;;;;6131373;23;20431;-95
2022/08/10 03:27:11;;;;;;;2.33;2.13;;;20.70;99.90;;;;;;6131772;23;20385;-92
2022/08/10 03:29:37;;;;;;;5.00;3.03;;;20.70;99.90;;;;;;6133739;23;20421;-96
2022/08/10 03:32:05;;;;;;;2.43;2.20;;;20.60;99.90;;;;;;6138058;23;20439;-95
2022/08/10 03:34:31;;;;;;;2.37;2.27;;;20.60;99.90;;;;;;6136453;23;20424;-92
2022/08/10 03:36:57;;;;;;;3.37;2.60;;;20.60;99.90;;;;;;6135171;23;20387;-92
2022/08/10 03:39:23;;;;;;;2.30;2.10;;;20.60;99.90;;;;;;6134832;23;20894;-96
2022/08/10 03:41:54;;;;;;;2.37;2.20;;;20.60;99.90;;;;;;6159835;23;20604;-96
2022/08/10 03:44:26;;;;;;;3.73;2.57;;;20.50;99.90;;;;;;6135120;23;20412;-92
2022/08/10 03:46:53;;;;;;;2.50;2.20;;;20.50;99.90;;;;;;6135073;23;20858;-96
2022/08/10 03:49:20;;;;;;;2.93;2.30;;;20.50;99.90;;;;;;6135552;23;20407;-96
2022/08/10 03:51:48;;;;;;;2.50;2.17;;;20.40;99.90;;;;;;6136058;23;20995;-92
2022/08/10 03:54:16;;;;;;;2.60;2.40;;;20.40;99.90;;;;;;6136910;23;20415;-92
2022/08/10 03:56:42;;;;;;;2.47;2.17;;;20.40;99.90;;;;;;6135174;23;20383;-91
2022/08/10 03:59:10;;;;;;;2.17;2.03;;;20.40;99.90;;;;;;6160842;23;20376;-95
2022/08/10 04:01:36;;;;;;;2.73;2.50;;;20.30;99.90;;;;;;6136286;23;20380;-96
2022/08/10 04:04:02;;;;;;;2.43;2.20;;;20.30;99.90;;;;;;6135488;23;20393;-92
2022/08/10 04:06:28;;;;;;;2.43;2.00;;;20.40;99.90;;;;;;6151142;23;20555;-96
2022/08/10 04:08:54;;;;;;;2.50;2.30;;;20.30;99.90;;;;;;6161175;23;20511;-92
2022/08/10 04:11:20;;;;;;;3.97;2.50;;;20.40;99.90;;;;;;6170388;23;20451;-95
2022/08/10 04:13:46;;;;;;;2.10;2.00;;;20.40;99.90;;;;;;6166480;23;20170;-95
2022/08/10 04:16:11;;;;;;;6.97;2.70;;;20.40;99.90;;;;;;6161942;23;20192;-96
2022/08/10 04:18:37;;;;;;;2.80;1.97;;;20.40;99.90;;;;;;6166378;23;20221;-95
2022/08/10 04:21:10;;;;;;;4.17;2.40;;;20.50;99.90;;;;;;6171740;23;20229;-96
2022/08/10 04:23:41;;;;;;;2.27;2.07;;;20.50;99.90;;;;;;6160626;23;20159;-96
2022/08/10 04:26:07;;;;;;;2.20;2.00;;;20.60;99.90;;;;;;6162254;23;20403;-96
2022/08/10 04:28:34;;;;;;;3.10;2.30;;;20.60;99.90;;;;;;6159614;23;20392;-92
2022/08/10 04:31:03;;;;;;;2.43;2.23;;;20.60;99.90;;;;;;6158079;23;20443;-96
2022/08/10 04:33:31;;;;;;;2.70;2.50;;;20.60;99.90;;;;;;6157940;23;20397;-96
2022/08/10 04:35:59;;;;;;;3.30;2.10;;;20.70;99.90;;;;;;6158638;23;20792;-96
2022/08/10 04:38:27;;;;;;;4.30;2.63;;;20.70;99.90;;;;;;6160429;23;20456;-96
2022/08/10 04:40:54;;;;;;;2.83;2.63;;;20.80;99.90;;;;;;6161416;23;20444;-92
2022/08/10 04:43:19;;;;;;;2.40;2.20;;;20.80;99.90;;;;;;6158601;23;20904;-92
2022/08/10 04:45:46;;;;;;;3.30;2.37;;;20.80;99.90;;;;;;6159084;23;20418;-96
2022/08/10 04:48:11;;;;;;;2.90;2.70;;;20.90;99.90;;;;;;6158713;23;20682;-96
2022/08/10 04:50:37;;;;;;;2.37;2.27;;;20.90;99.90;;;;;;6158498;23;20430;-93
2022/08/10 04:53:03;;;;;;;3.13;2.83;;;20.90;99.90;;;;;;6160078;23;20171;-95
2022/08/10 04:55:29;;;;;;;3.07;2.60;;;21.00;99.90;;;;;;6158573;23;20512;-96
2022/08/10 04:57:54;;;;;;;2.33;2.13;;;21.00;99.90;;;;;;6158594;23;20160;-95
2022/08/10 05:00:20;;;;;;;4.57;2.57;;;21.00;99.90;;;;;;6159682;23;20301;-92
2022/08/10 05:02:46;;;;;;;3.37;3.07;;;21.10;99.90;;;;;;6159612;23;20189;-94
2022/08/10 05:05:12;;;;;;;2.77;2.47;;;21.10;99.90;;;;;;6158664;23;20214;-91
2022/08/10 05:07:37;;;;;;;2.50;2.30;;;21.10;99.90;;;;;;6160787;23;20156;-93
2022/08/10 05:10:03;;;;;;;3.00;2.40;;;21.10;99.90;;;;;;6158543;23;20190;-96
2022/08/10 05:12:29;;;;;;;3.23;2.90;;;21.10;99.90;;;;;;6160060;23;20222;-92
2022/08/10 05:14:55;;;;;;;2.10;2.00;;;21.20;99.90;;;;;;6158197;23;20425;-92
2022/08/10 05:17:22;;;;;;;3.23;2.50;;;21.20;99.90;;;;;;6159838;23;20162;-92
2022/08/10 05:19:48;;;;;;;3.40;2.57;;;21.20;99.90;;;;;;6158084;23;20490;-92
2022/08/10 05:22:13;;;;;;;3.37;2.80;;;21.30;99.90;;;;;;6161543;23;20373;-95
2022/08/10 05:24:39;;;;;;;2.90;2.07;;;21.30;99.90;;;;;;6162401;23;20190;-96
2022/08/10 05:27:05;;;;;;;2.50;2.30;;;21.30;99.90;;;;;;6168326;23;20213;-95
2022/08/10 05:29:32;;;;;;;2.73;2.47;;;21.40;99.90;;;;;;6168219;23;20267;-94
2022/08/10 05:31:59;;;;;;;3.20;2.90;;;21.40;99.90;;;;;;6156616;23;20491;-93
2022/08/10 05:34:29;;;;;;;7.20;2.80;;;21.40;99.90;;;;;;6157530;23;20421;-92
2022/08/10 05:36:56;;;;;;;2.90;2.40;;;21.50;99.90;;;;;;6155898;23;20433;-92
2022/08/10 05:39:22;;;;;;;2.80;2.60;;;21.50;99.90;;;;;;6157088;23;20420;-96
2022/08/10 05:41:53;;;;;;;2.77;2.40;;;21.50;99.90;;;;;;6156754;23;20393;-96
2022/08/10 05:44:23;;;;;;;2.70;2.40;;;21.50;99.90;;;;;;6163818;23;20433;-96
2022/08/10 05:46:49;;;;;;;2.83;2.50;;;21.50;99.90;;;;;;6158800;23;20475;-92
2022/08/10 05:49:15;;;;;;;2.87;2.67;;;21.60;99.90;;;;;;6156821;23;20405;-96
2022/08/10 05:51:42;;;;;;;2.40;2.20;;;21.60;99.90;;;;;;6155205;23;20463;-96
2022/08/10 05:54:14;;;;;;;3.13;2.63;;;21.60;99.90;;;;;;6156226;23;20917;-92
2022/08/10 05:56:42;;;;;;;5.00;3.07;;;21.70;99.90;;;;;;6157104;23;20380;-96
2022/08/10 05:59:13;;;;;;;5.57;3.27;;;21.70;99.90;;;;;;6159090;23;20392;-96
2022/08/10 06:01:42;;;;;;;2.53;2.33;;;21.80;99.90;;;;;;6165351;23;20950;-96
2022/08/10 06:04:10;;;;;;;3.77;2.60;;;21.80;99.90;;;;;;6164083;23;20381;-92
2022/08/10 06:06:37;;;;;;;3.30;2.30;;;21.90;99.90;;;;;;6161154;23;20465;-92
2022/08/10 06:09:05;;;;;;;6.27;2.63;;;21.90;99.90;;;;;;6161900;23;20393;-93
2022/08/10 06:11:32;;;;;;;3.00;2.73;;;22.00;99.90;;;;;;6156745;23;20902;-91
2022/08/10 06:16:44;;;;;;;2.63;2.43;;;22.10;99.90;;;;;;6166363;23;20468;-95
2022/08/10 06:19:14;;;;;;;4.10;3.07;;;22.20;99.90;;;;;;6164120;23;20451;-96
2022/08/10 06:21:40;;;;;;;2.73;2.53;;;22.30;99.90;;;;;;6167325;23;20412;-96
2022/08/10 06:24:09;;;;;;;3.10;2.90;;;22.30;99.90;;;;;;6164280;23;20381;-96
2022/08/10 06:26:36;;;;;;;3.23;2.97;;;22.40;99.90;;;;;;6173114;23;20392;-96
2022/08/10 06:29:12;;;;;;;2.27;2.07;;;22.50;99.90;;;;;;6156869;23;20424;-96
2022/08/10 06:32:03;;;;;;;2.87;2.67;;;22.60;99.90;;;;;;6153769;23;20536;-92
2022/08/10 06:34:32;;;;;;;3.70;2.40;;;22.70;99.90;;;;;;6156819;23;20456;-93
2022/08/10 06:37:07;;;;;;;2.73;2.40;;;22.70;99.90;;;;;;6156325;23;20393;-96
2022/08/10 06:39:33;;;;;;;2.80;2.50;;;22.80;99.90;;;;;;6164499;23;20449;-93
2022/08/10 06:42:04;;;;;;;2.90;2.70;;;22.90;99.90;;;;;;6159060;23;20385;-96
2022/08/10 06:44:39;;;;;;;2.93;2.10;;;23.00;99.90;;;;;;6155281;23;20413;-96
2022/08/10 06:47:08;;;;;;;2.70;2.07;;;23.00;99.90;;;;;;6155850;23;20419;-93
2022/08/10 06:49:36;;;;;;;3.77;2.40;;;23.10;99.90;;;;;;6151352;23;20920;-96
2022/08/10 06:52:02;;;;;;;8.17;2.90;;;23.10;99.90;;;;;;6153483;23;20483;-96
2022/08/10 06:54:31;;;;;;;2.40;2.20;;;23.20;99.90;;;;;;6150027;23;20428;-93
2022/08/10 06:57:00;;;;;;;2.60;2.40;;;23.30;99.90;;;;;;6146989;23;20401;-92
2022/08/10 06:59:31;;;;;;;2.83;2.63;;;23.30;99.90;;;;;;6152027;23;20428;-92
2022/08/10 07:02:04;;;;;;;2.27;2.17;;;23.40;99.90;;;;;;6153676;23;20844;-93
2022/08/10 07:04:47;;;;;;;2.50;2.30;;;23.40;99.90;;;;;;6158131;23;20437;-96
2022/08/10 07:07:23;;;;;;;3.93;2.40;;;23.50;99.90;;;;;;6151218;23;20398;-93
2022/08/10 07:09:50;;;;;;;2.40;2.20;;;23.60;99.90;;;;;;6149793;23;20402;-93
2022/08/10 07:12:20;;;;;;;3.60;2.50;;;23.60;99.90;;;;;;6150372;23;20442;-96
2022/08/10 07:14:46;;;;;;;2.90;2.63;;;23.70;99.90;;;;;;6151843;23;20479;-96
2022/08/10 07:17:17;;;;;;;4.87;2.90;;;23.70;99.90;;;;;;6151926;23;20419;-96
2022/08/10 07:19:49;;;;;;;2.77;2.50;;;23.80;99.90;;;;;;6150803;23;20461;-93
2022/08/10 07:22:16;;;;;;;4.27;2.50;;;23.80;99.90;;;;;;6154503;23;20404;-96
2022/08/10 07:24:43;;;;;;;2.60;2.33;;;23.90;99.90;;;;;;6155265;23;20452;-96
2022/08/10 07:27:10;;;;;;;2.50;2.30;;;23.90;99.90;;;;;;6154261;23;20488;-96
2022/08/10 07:29:38;;;;;;;4.40;2.80;;;24.00;99.90;;;;;;6155288;23;20424;-93
2022/08/10 07:32:05;;;;;;;2.83;2.60;;;24.00;99.90;;;;;;6156536;23;20446;-96
2022/08/10 07:34:34;;;;;;;3.50;2.77;;;24.10;99.90;;;;;;6153002;23;20415;-92
2022/08/10 07:37:02;;;;;;;5.03;2.63;;;24.10;99.90;;;;;;6150195;23;20496;-94
2022/08/10 07:39:31;;;;;;;2.90;2.70;;;24.10;99.90;;;;;;6147208;23;20460;-96
2022/08/10 07:42:00;;;;;;;1.87;1.77;;;24.20;99.90;;;;;;6152311;23;20391;-92
2022/08/10 07:44:27;;;;;;;4.20;2.40;;;24.20;99.90;;;;;;6154117;23;20422;-92
2022/08/10 07:46:55;;;;;;;3.47;2.50;;;24.20;99.90;;;;;;6156430;23;20391;-92
2022/08/10 07:49:26;;;;;;;2.60;2.40;;;24.20;99.90;;;;;;6155513;23;20430;-96
2022/08/10 07:51:55;;;;;;;3.47;2.43;;;24.30;99.90;;;;;;6154942;23;20432;-96
2022/08/10 07:54:24;;;;;;;2.60;2.40;;;24.30;99.90;;;;;;6153298;23;21062;-93
2022/08/10 07:56:52;;;;;;;3.30;2.73;;;24.40;99.90;;;;;;6156170;23;20879;-96
2022/08/10 07:59:25;;;;;;;2.60;2.40;;;24.40;99.90;;;;;;6152234;23;20913;-96
2022/08/10 08:01:54;;;;;;;3.37;2.60;;;24.40;99.90;;;;;;6152909;23;20437;-93
2022/08/10 08:04:22;;;;;;;4.33;2.20;;;24.40;99.90;;;;;;6151804;23;20474;-92
2022/08/10 08:06:50;;;;;;;4.27;2.33;;;24.40;99.90;;;;;;6150186;23;20725;-96
2022/08/10 08:09:22;;;;;;;2.40;2.20;;;24.40;99.90;;;;;;6150185;23;20412;-96
2022/08/10 08:11:50;;;;;;;3.50;2.63;;;24.50;99.90;;;;;;6152070;23;20509;-93
2022/08/10 08:14:18;;;;;;;2.47;2.27;;;24.60;99.90;;;;;;6144792;23;20406;-93
2022/08/10 08:16:47;;;;;;;5.00;2.30;;;24.60;99.90;;;;;;6154475;23;20384;-93
2022/08/10 08:19:15;;;;;;;3.60;2.57;;;24.70;99.90;;;;;;6163685;23;20388;-93
2022/08/10 08:21:42;;;;;;;2.00;1.90;;;24.70;99.90;;;;;;6157683;23;20398;-96
2022/08/10 08:24:08;;;;;;;3.10;2.70;;;24.70;99.90;;;;;;6156718;23;20931;-96
2022/08/10 08:26:36;;;;;;;2.67;2.33;;;24.80;99.90;;;;;;6157717;23;20392;-96
2022/08/10 08:29:04;;;;;;;3.47;2.43;;;24.80;99.90;;;;;;6162705;23;20380;-96
2022/08/10 08:31:31;;;;;;;2.63;2.43;;;24.90;99.90;;;;;;6161914;23;20427;-96
2022/08/10 08:33:58;;;;;;;3.10;2.90;;;24.90;99.90;;;;;;6160789;23;20376;-92
2022/08/10 08:36:25;;;;;;;2.60;2.40;;;24.90;99.90;;;;;;6158053;23;20401;-96
2022/08/10 08:38:51;;;;;;;2.80;2.60;;;25.00;99.90;;;;;;6161672;23;20391;-93
2022/08/10 08:41:19;;;;;;;2.30;1.90;;;25.00;99.90;;;;;;6156861;23;21045;-94
2022/08/10 08:44:16;;;;;;;3.47;2.40;;;25.00;99.90;;;;;;6154494;23;20395;-92
2022/08/10 08:46:42;;;;;;;2.50;2.30;;;25.10;99.90;;;;;;6152944;23;20387;-96
2022/08/10 08:49:16;;;;;;;2.50;2.30;;;25.10;99.90;;;;;;6154812;23;20376;-93
2022/08/10 08:51:54;;;;;;;2.70;2.47;;;25.20;99.90;;;;;;6158479;23;20253;-96
2022/08/10 08:54:46;;;;;;;2.20;2.10;;;25.20;99.90;;;;;;6154845;23;20405;-96
2022/08/10 08:57:18;;;;;;;3.20;2.50;;;25.30;99.90;;;;;;6155964;23;20381;-92
2022/08/10 08:59:55;;;;;;;2.37;2.17;;;25.40;99.90;;;;;;6155616;23;20472;-96
2022/08/10 09:02:39;;;;;;;3.30;2.50;;;25.40;99.90;;;;;;6156802;23;20459;-93
2022/08/10 09:05:20;;;;;;;2.67;2.47;;;25.50;99.90;;;;;;6156272;23;20423;-93
2022/08/10 09:08:19;;;;;;;4.37;2.57;;;25.50;99.90;;;;;;6138226;23;20396;-96
2022/08/10 09:11:25;;;;;;;2.30;2.10;;;25.50;99.90;;;;;;6156854;23;20435;-92
2022/08/10 09:14:12;;;;;;;6.27;2.70;;;25.60;99.90;;;;;;6134291;23;20436;-93
2022/08/10 09:16:50;;;;;;;2.50;2.27;;;25.70;99.90;;;;;;6145773;23;20473;-96
2022/08/10 09:19:40;;;;;;;2.50;2.30;;;25.80;99.90;;;;;;6130500;23;20404;-93
2022/08/10 09:22:31;;;;;;;2.33;2.10;;;25.80;99.90;;;;;;6129987;23;20428;-93
2022/08/10 09:25:06;;;;;;;2.23;2.10;;;25.90;99.90;;;;;;6100987;23;20429;-93
2022/08/10 09:27:53;;;;;;;5.90;2.43;;;26.00;99.90;;;;;;6133119;23;20396;-96
2022/08/10 09:30:47;;;;;;;3.73;2.50;;;26.00;99.90;;;;;;6154923;23;20481;-96
2022/08/10 09:33:19;;;;;;;3.00;2.27;;;26.00;99.90;;;;;;6133553;23;21081;-91
2022/08/10 09:36:10;;;;;;;2.30;2.10;;;26.10;99.90;;;;;;6129333;23;20452;-93
2022/08/10 09:39:11;;;;;;;3.00;2.40;;;26.10;99.80;;;;;;6132035;23;20439;-96
2022/08/10 09:41:46;;;;;;;4.87;2.70;;;26.20;99.80;;;;;;6131283;23;20396;-96
2022/08/10 09:44:45;;;;;;;2.53;2.30;;;26.20;99.60;;;;;;6134163;23;20700;-94
2022/08/10 09:47:46;;;;;;;2.70;2.50;;;26.30;99.40;;;;;;6138647;23;20389;-96
2022/08/10 09:50:18;;;;;;;2.33;2.13;;;26.30;99.40;;;;;;6130267;23;20470;-93
2022/08/10 09:53:07;;;;;;;3.63;2.93;;;26.30;99.10;;;;;;6128788;23;20544;-92
2022/08/10 09:56:10;;;;;;;4.73;2.43;;;26.30;99.10;;;;;;6131788;23;20424;-96
2022/08/10 09:59:04;;;;;;;3.77;2.23;;;26.20;99.00;;;;;;6130796;23;20702;-93
2022/08/10 10:01:50;;;;;;;2.60;2.40;;;26.20;99.00;;;;;;6136061;23;20408;-93
2022/08/10 10:04:38;;;;;;;2.33;2.13;;;26.20;98.90;;;;;;6131317;23;20404;-93
2022/08/10 10:07:09;;;;;;;2.80;2.60;;;26.30;98.90;;;;;;6155240;23;20428;-94
2022/08/10 10:09:53;;;;;;;2.87;2.53;;;26.30;98.80;;;;;;6160246;23;20401;-96
2022/08/10 10:12:40;;;;;;;2.17;1.97;;;26.40;98.70;;;;;;6153694;23;20449;-96
2022/08/10 10:15:39;;;;;;;3.47;2.60;;;26.40;98.50;;;;;;6151803;23;20821;-96
2022/08/10 10:18:27;;;;;;;2.53;2.33;;;26.50;98.40;;;;;;6133665;23;20393;-96
2022/08/10 10:21:07;;;;;;;2.00;1.90;;;26.50;98.30;;;;;;6138413;23;20431;-92
2022/08/10 10:23:41;;;;;;;3.77;2.27;;;26.60;97.60;;;;;;6131303;23;20803;-92
2022/08/10 10:26:28;;;;;;;4.00;2.13;;;26.70;97.70;;;;;;6132730;23;20527;-93
2022/08/10 10:28:59;;;;;;;2.50;2.10;;;26.80;97.60;;;;;;6129003;23;20404;-93
2022/08/10 10:31:43;;;;;;;2.70;2.50;;;26.90;97.40;;;;;;6129867;23;20604;-92
2022/08/10 10:34:20;;;;;;;3.80;2.23;;;26.80;97.60;;;;;;6127768;23;20381;-93
2022/08/10 10:36:50;;;;;;;3.93;2.13;;;26.80;97.40;;;;;;6129982;23;20385;-96
2022/08/10 10:39:20;;;;;;;2.60;2.40;;;26.90;97.00;;;;;;6155057;23;20397;-96
2022/08/10 10:42:37;;;;;;;5.40;2.10;;;26.90;96.70;;;;;;6133554;23;20873;-93
2022/08/10 10:45:17;;;;;;;2.90;2.60;;;26.90;97.10;;;;;;6044793;23;20433;-93
2022/08/10 10:47:52;;;;;;;1.87;1.77;;;26.90;97.10;;;;;;6128907;23;20416;-96
2022/08/10 10:51:09;;;;;;;2.07;1.97;;;26.90;97.40;;;;;;6131484;23;20424;-92
2022/08/10 10:53:37;;;;;;;4.50;2.27;;;26.90;97.10;;;;;;6093059;23;20453;-96
2022/08/10 10:56:15;;;;;;;2.60;2.20;;;26.90;96.00;;;;;;6130883;23;20432;-96
2022/08/10 10:59:06;;;;;;;3.20;2.30;;;27.00;96.60;;;;;;6129141;23;20856;-93
2022/08/10 11:01:54;;;;;;;2.37;2.20;;;27.00;96.80;;;;;;6129279;23;20460;-92
2022/08/10 11:04:39;;;;;;;2.90;1.90;;;27.00;96.80;;;;;;6128940;23;20444;-92
2022/08/10 11:07:14;;;;;;;2.37;2.17;;;27.00;96.50;;;;;;6149415;23;20441;-92
2022/08/10 11:09:57;;;;;;;3.40;1.97;;;27.10;96.70;;;;;;6151496;23;20630;-93
2022/08/10 11:13:00;;;;;;;2.23;2.07;;;27.10;96.40;;;;;;6153742;23;20985;-96
2022/08/10 11:15:42;;;;;;;2.30;2.10;;;27.10;96.10;;;;;;6154854;23;20420;-93
2022/08/10 11:18:17;;;;;;;2.40;2.20;;;27.10;96.20;;;;;;6155982;23;20365;-96
2022/08/10 11:20:59;;;;;;;2.67;2.10;;;27.10;95.70;;;;;;6164970;23;20421;-94
2022/08/10 11:23:44;;;;;;;3.10;2.10;;;27.10;95.90;;;;;;6154622;23;20381;-93
2022/08/10 11:26:18;;;;;;;3.10;2.47;;;27.20;96.20;;;;;;6153208;23;20431;-93
2022/08/10 11:28:53;;;;;;;3.87;2.57;;;27.20;95.90;;;;;;6155596;23;20369;-96
2022/08/10 11:31:42;;;;;;;2.00;1.80;;;27.20;96.00;;;;;;6155896;23;20471;-93
2022/08/10 11:34:31;;;;;;;1.80;1.70;;;27.20;96.00;;;;;;6154744;23;20814;-93
2022/08/10 11:37:17;;;;;;;2.10;1.90;;;27.20;96.00;;;;;;6156079;23;20391;-92
2022/08/10 11:40:04;;;;;;;2.43;2.23;;;27.20;95.90;;;;;;6165578;23;20483;-92
2022/08/10 11:42:43;;;;;;;4.17;1.83;;;27.30;95.60;;;;;;6155609;23;20381;-93
2022/08/10 11:45:27;;;;;;;2.10;2.00;;;27.30;95.50;;;;;;6155211;23;20444;-96
2022/08/10 11:47:58;;;;;;;3.00;2.13;;;27.30;95.40;;;;;;6156491;23;20381;-96
2022/08/10 11:51:00;;;;;;;3.30;2.00;;;27.30;95.60;;;;;;6160420;23;20421;-96
2022/08/10 11:53:31;;;;;;;2.50;1.83;;;27.40;95.50;;;;;;6158595;23;20392;-96
2022/08/10 11:55:59;;;;;;;2.07;1.93;;;27.40;95.20;;;;;;6165984;23;20416;-92
2022/08/10 12:01:20;;;;;;;2.70;2.07;;;27.50;95.30;;;;;;6158638;23;20509;-93
2022/08/10 12:03:47;;;;;;;2.97;2.80;;;27.50;95.10;;;;;;6156847;23;20379;-96
2022/08/10 12:06:17;;;;;;;1.60;1.50;;;27.50;95.10;;;;;;6157673;23;20436;-96
2022/08/10 12:08:46;;;;;;;1.90;1.80;;;27.50;95.10;;;;;;6158072;23;20778;-96
2022/08/10 12:11:16;;;;;;;1.93;1.83;;;27.40;95.20;;;;;;6159593;23;20503;-93
2022/08/10 12:14:00;;;;;;;3.63;2.00;;;27.50;95.20;;;;;;6158462;23;20385;-93
2022/08/10 12:16:28;;;;;;;2.43;1.90;;;27.50;95.10;;;;;;6159017;23;20845;-96
2022/08/10 12:19:09;;;;;;;2.33;2.00;;;27.60;94.90;;;;;;6157549;23;20505;-93
2022/08/10 12:21:45;;;;;;;3.03;2.00;;;27.60;94.70;;;;;;6159466;23;20866;-93
2022/08/10 12:24:20;;;;;;;3.73;2.20;;;27.60;94.50;;;;;;6158330;23;20395;-94
2022/08/10 12:26:52;;;;;;;2.40;1.90;;;27.60;94.70;;;;;;6157753;23;20389;-96
2022/08/10 12:29:38;;;;;;;2.40;2.20;;;27.60;94.80;;;;;;6159567;23;20410;-93
2022/08/10 12:32:23;;;;;;;2.50;2.23;;;27.70;94.50;;;;;;6158733;23;20804;-96
2022/08/10 12:34:58;;;;;;;1.83;1.73;;;27.80;94.50;;;;;;6158525;23;20424;-96
2022/08/10 12:37:31;;;;;;;3.27;2.27;;;27.70;94.40;;;;;;6158957;23;20427;-92
2022/08/10 12:40:12;;;;;;;1.83;1.73;;;27.70;93.40;;;;;;6158576;23;20413;-92
2022/08/10 12:43:17;;;;;;;2.93;2.00;;;27.80;94.00;;;;;;6158297;23;20871;-96
2022/08/10 12:46:08;;;;;;;4.50;2.60;;;27.80;94.50;;;;;;6157210;23;20425;-92
2022/08/10 12:49:01;;;;;;;2.40;2.20;;;27.80;94.40;;;;;;6105785;23;20440;-96
2022/08/10 12:51:30;;;;;;;3.00;2.30;;;27.70;94.30;;;;;;6155436;23;20524;-96
2022/08/10 12:54:07;;;;;;;2.20;2.00;;;27.70;94.10;;;;;;6156083;23;20382;-96
2022/08/10 12:56:45;;;;;;;2.03;1.93;;;27.80;94.20;;;;;;6156039;23;20394;-92
2022/08/10 12:59:13;;;;;;;5.07;2.13;;;27.80;94.20;;;;;;6155484;23;20377;-96
2022/08/10 13:01:42;;;;;;;1.57;1.47;;;27.80;94.20;;;;;;6155305;23;20401;-96
2022/08/10 13:04:13;;;;;;;2.00;1.90;;;27.80;92.90;;;;;;6161899;23;20391;-96
2022/08/10 13:06:46;;;;;;;3.70;1.80;;;27.90;93.30;;;;;;6155317;23;20484;-93
2022/08/10 13:09:21;;;;;;;2.07;1.83;;;27.90;93.90;;;;;;6155795;23;20392;-96
2022/08/10 13:11:58;;;;;;;2.40;1.93;;;27.90;93.20;;;;;;6155900;23;20436;-92
2022/08/10 13:14:43;;;;;;;2.27;2.07;;;28.00;93.70;;;;;;6156070;23;20426;-96
2022/08/10 13:17:11;;;;;;;2.23;1.97;;;28.00;93.50;;;;;;6160581;23;20596;-91
2022/08/10 13:19:44;;;;;;;1.70;1.60;;;27.90;93.50;;;;;;6164170;23;20428;-93
2022/08/10 13:22:13;;;;;;;3.43;2.03;;;27.90;93.50;;;;;;6152844;23;20387;-93
2022/08/10 13:24:44;;;;;;;3.20;2.00;;;27.90;93.10;;;;;;6156793;23;20410;-96
2022/08/10 13:27:13;;;;;;;2.50;1.97;;;27.90;93.50;;;;;;6157665;23;20406;-93